Time;durP1;ratioP1;P1;durP2;ratioP2;P2;SDS_P1;SDS_P2;PMS_P1;PMS_P2;Temp;Humidity;BMP_temperature;BMP_pressure;BME280_temperature;BME280_humidity;BME280_pressure;Samples;Min_cycle;Max_cycle;Signal;HPM_P1;HPM_P2
2021/03/08 00:01:38;;;;;;;11.73;8.60;;;6.90;99.90;;;;;;5028620;28;20334;-84
2021/03/08 00:04:04;;;;;;;13.88;7.40;;;6.90;99.90;;;;;;5031449;28;20222;-85
2021/03/08 00:06:31;;;;;;;10.30;7.25;;;6.90;99.90;;;;;;5033064;28;20219;-86
2021/03/08 00:08:57;;;;;;;10.52;7.97;;;6.90;99.90;;;;;;5027666;28;20255;-84
2021/03/08 00:11:23;;;;;;;11.70;8.15;;;6.80;99.90;;;;;;5029102;28;20741;-85
2021/03/08 00:13:49;;;;;;;8.98;6.72;;;6.90;99.90;;;;;;5029340;28;20200;-86
2021/03/08 00:16:16;;;;;;;11.90;7.85;;;6.90;99.90;;;;;;5028706;28;20222;-86
2021/03/08 00:18:42;;;;;;;14.07;8.30;;;6.90;99.90;;;;;;5029691;28;20199;-87
2021/03/08 00:21:08;;;;;;;12.05;8.73;;;6.90;99.90;;;;;;5029281;28;20208;-86
2021/03/08 00:23:35;;;;;;;10.93;7.45;;;6.90;99.90;;;;;;5035111;28;20215;-86
2021/03/08 00:26:02;;;;;;;11.43;7.75;;;6.90;99.90;;;;;;5033356;28;20242;-86
2021/03/08 00:28:28;;;;;;;12.13;8.15;;;6.90;99.90;;;;;;5033000;28;20192;-85
2021/03/08 00:30:54;;;;;;;10.93;7.80;;;6.90;99.90;;;;;;5028555;28;20203;-86
2021/03/08 00:33:20;;;;;;;9.23;7.60;;;6.90;99.90;;;;;;5025933;28;20219;-85
2021/03/08 00:35:46;;;;;;;14.18;9.27;;;6.90;99.90;;;;;;5027361;28;20214;-85
2021/03/08 00:38:13;;;;;;;9.57;8.27;;;6.90;99.90;;;;;;5030025;28;20246;-85
2021/03/08 00:40:40;;;;;;;12.52;8.30;;;6.90;99.90;;;;;;5027559;28;20223;-84
2021/03/08 00:43:06;;;;;;;11.10;8.15;;;6.90;99.90;;;;;;5023665;28;20243;-86
2021/03/08 00:45:32;;;;;;;10.95;8.30;;;6.90;99.90;;;;;;5020256;28;20215;-87
2021/03/08 00:47:58;;;;;;;9.70;7.82;;;6.80;99.90;;;;;;5034058;28;20310;-85
2021/03/08 00:50:26;;;;;;;13.35;7.68;;;6.80;99.90;;;;;;5034828;28;20235;-85
2021/03/08 00:52:54;;;;;;;10.05;7.85;;;6.80;99.90;;;;;;5033942;28;20250;-84
2021/03/08 00:55:20;;;;;;;13.18;8.57;;;6.90;99.90;;;;;;5030248;28;20215;-85
2021/03/08 00:57:48;;;;;;;12.25;8.35;;;6.90;99.90;;;;;;5027450;28;20211;-86
2021/03/08 01:00:17;;;;;;;12.73;9.70;;;6.90;99.90;;;;;;5028829;28;20227;-85
2021/03/08 01:02:44;;;;;;;11.05;8.23;;;6.90;99.90;;;;;;5028860;28;20212;-86
2021/03/08 01:05:10;;;;;;;11.43;8.82;;;6.90;99.90;;;;;;5028089;28;20215;-86
2021/03/08 01:07:37;;;;;;;11.68;7.85;;;6.80;99.90;;;;;;5028736;28;20207;-86
2021/03/08 01:10:07;;;;;;;16.73;9.48;;;6.90;99.90;;;;;;5028408;28;20223;-86
2021/03/08 01:12:34;;;;;;;10.95;8.82;;;6.90;99.90;;;;;;5027300;28;20188;-86
2021/03/08 01:15:01;;;;;;;11.68;8.82;;;6.90;99.90;;;;;;5034504;28;20242;-87
2021/03/08 01:17:27;;;;;;;11.82;8.25;;;6.80;99.90;;;;;;5040301;28;20246;-87
2021/03/08 01:19:53;;;;;;;12.63;9.27;;;6.90;99.90;;;;;;5039580;28;20901;-86
2021/03/08 01:22:19;;;;;;;11.75;8.20;;;6.80;99.90;;;;;;5038014;28;20216;-87
2021/03/08 01:24:45;;;;;;;12.75;8.88;;;6.80;99.90;;;;;;5032461;28;20265;-87
2021/03/08 01:27:12;;;;;;;10.85;8.02;;;6.80;99.90;;;;;;5032833;28;20195;-86
2021/03/08 01:29:38;;;;;;;12.68;9.32;;;6.80;99.90;;;;;;5032061;28;20219;-87
2021/03/08 01:32:06;;;;;;;10.48;8.52;;;6.80;99.90;;;;;;5030260;28;20269;-87
2021/03/08 01:34:32;;;;;;;11.80;9.10;;;6.90;99.90;;;;;;5030329;28;20224;-85
2021/03/08 01:36:58;;;;;;;11.63;8.70;;;6.90;99.90;;;;;;5030814;28;20655;-85
2021/03/08 01:39:24;;;;;;;11.68;9.57;;;6.90;99.90;;;;;;5031497;28;20215;-85
2021/03/08 01:41:51;;;;;;;11.18;8.63;;;6.90;99.90;;;;;;5031059;28;20207;-86
2021/03/08 01:44:17;;;;;;;11.30;8.73;;;6.90;99.90;;;;;;5031173;28;20753;-86
2021/03/08 01:46:43;;;;;;;11.45;8.68;;;6.90;99.90;;;;;;5029521;28;20196;-86
2021/03/08 01:49:10;;;;;;;10.70;8.35;;;6.90;99.90;;;;;;5030594;28;20224;-85
2021/03/08 01:51:37;;;;;;;12.40;8.68;;;6.90;99.90;;;;;;5031525;28;20222;-86
2021/03/08 01:54:03;;;;;;;13.35;9.50;;;6.90;99.90;;;;;;5033709;28;20405;-86
2021/03/08 01:56:30;;;;;;;11.65;9.80;;;6.90;99.90;;;;;;5033504;28;20216;-84
2021/03/08 01:58:56;;;;;;;16.00;10.98;;;6.90;99.90;;;;;;5035836;28;20224;-85
2021/03/08 02:01:22;;;;;;;15.52;10.30;;;6.90;99.90;;;;;;5018095;28;20220;-85
2021/03/08 02:03:49;;;;;;;12.23;8.70;;;6.90;99.90;;;;;;5037165;28;20651;-85
2021/03/08 02:06:16;;;;;;;13.43;8.35;;;6.90;99.90;;;;;;5028108;28;20215;-84
2021/03/08 02:08:42;;;;;;;14.73;8.93;;;6.90;99.90;;;;;;5035139;28;20218;-85
2021/03/08 02:11:08;;;;;;;11.52;8.70;;;6.90;99.90;;;;;;5018841;28;20243;-84
2021/03/08 02:14:14;;;;;;;12.32;8.63;;;6.90;99.90;;;;;;5016662;28;20223;-84
2021/03/08 02:16:47;;;;;;;12.30;9.70;;;6.90;99.90;;;;;;5032038;28;20199;-87
2021/03/08 02:19:35;;;;;;;11.75;7.80;;;6.90;99.90;;;;;;5037756;28;20234;-87
2021/03/08 02:22:43;;;;;;;15.70;9.88;;;6.90;99.90;;;;;;5037328;28;20219;-87
2021/03/08 02:25:21;;;;;;;12.30;9.15;;;6.90;99.90;;;;;;5034256;28;20207;-88
2021/03/08 02:28:25;;;;;;;13.27;9.18;;;6.90;99.90;;;;;;5036013;28;20203;-86
2021/03/08 02:30:53;;;;;;;16.20;11.88;;;6.90;99.90;;;;;;5029777;28;20223;-86
2021/03/08 02:33:23;;;;;;;12.27;9.38;;;6.90;99.90;;;;;;5030057;28;20207;-86
2021/03/08 02:35:54;;;;;;;15.68;10.63;;;6.90;99.90;;;;;;5028067;28;20218;-85
2021/03/08 02:38:26;;;;;;;12.38;8.98;;;6.90;99.90;;;;;;5030047;28;20268;-86
2021/03/08 02:41:00;;;;;;;14.20;10.20;;;6.90;99.90;;;;;;5029125;28;20227;-86
2021/03/08 02:43:30;;;;;;;13.75;9.13;;;6.90;99.90;;;;;;5030963;28;20207;-86
2021/03/08 02:46:01;;;;;;;13.95;9.27;;;6.90;99.90;;;;;;5032148;28;20188;-85
2021/03/08 02:48:30;;;;;;;13.85;9.07;;;6.90;99.90;;;;;;5031411;28;20246;-86
2021/03/08 02:50:58;;;;;;;12.82;8.70;;;6.90;99.90;;;;;;5030844;28;20236;-85
2021/03/08 02:53:27;;;;;;;15.38;10.30;;;6.90;99.90;;;;;;5018890;28;20610;-86
2021/03/08 02:55:56;;;;;;;12.70;8.70;;;6.90;99.90;;;;;;5035005;28;20298;-87
2021/03/08 02:58:24;;;;;;;12.60;8.65;;;6.90;99.90;;;;;;5035211;28;20215;-87
2021/03/08 03:00:52;;;;;;;12.63;9.38;;;6.80;99.90;;;;;;5035663;28;20613;-86
2021/03/08 03:03:21;;;;;;;12.15;10.38;;;6.90;99.90;;;;;;5036679;28;20226;-87
2021/03/08 03:05:48;;;;;;;13.90;10.65;;;6.90;99.90;;;;;;5035423;28;20614;-87
2021/03/08 03:08:16;;;;;;;13.88;9.68;;;6.80;99.90;;;;;;5036355;28;20219;-87
2021/03/08 03:10:43;;;;;;;14.68;9.32;;;6.90;99.90;;;;;;5033608;28;20223;-86
2021/03/08 03:13:10;;;;;;;14.13;9.93;;;6.90;99.90;;;;;;5037024;28;20915;-87
2021/03/08 03:15:39;;;;;;;12.70;9.75;;;6.90;99.90;;;;;;5036689;28;20253;-87
2021/03/08 03:18:07;;;;;;;15.75;9.93;;;6.90;99.90;;;;;;5037318;28;20221;-86
2021/03/08 03:20:36;;;;;;;13.35;9.55;;;6.90;99.90;;;;;;5036114;28;20227;-86
2021/03/08 03:23:06;;;;;;;13.13;9.25;;;6.90;99.90;;;;;;5036855;28;20246;-87
2021/03/08 03:25:32;;;;;;;13.30;8.45;;;6.90;99.90;;;;;;5031113;28;20187;-84
2021/03/08 03:27:59;;;;;;;12.50;8.70;;;6.90;99.90;;;;;;5028697;28;20655;-85
2021/03/08 03:30:29;;;;;;;12.52;10.25;;;6.90;99.90;;;;;;5026305;28;20294;-83
2021/03/08 03:32:56;;;;;;;13.25;10.25;;;6.90;99.90;;;;;;5029881;28;20188;-84
2021/03/08 03:35:25;;;;;;;13.40;9.23;;;6.90;99.90;;;;;;5029713;28;20191;-87
2021/03/08 03:37:52;;;;;;;14.88;9.90;;;6.90;99.90;;;;;;5030980;28;20254;-88
2021/03/08 03:40:20;;;;;;;13.43;8.70;;;6.90;99.90;;;;;;5029082;28;20224;-87
2021/03/08 03:42:49;;;;;;;14.95;9.55;;;6.90;99.90;;;;;;5027623;28;20196;-87
2021/03/08 03:45:17;;;;;;;14.88;10.20;;;6.90;99.90;;;;;;5016512;28;20202;-88
2021/03/08 03:47:43;;;;;;;17.05;10.45;;;6.90;99.90;;;;;;5026976;28;20220;-86
2021/03/08 03:50:12;;;;;;;14.18;9.70;;;6.90;99.90;;;;;;5025898;28;20321;-87
2021/03/08 03:52:39;;;;;;;13.30;10.00;;;6.80;99.90;;;;;;5054173;28;20237;-90
2021/03/08 03:55:10;;;;;;;11.75;9.52;;;6.90;99.90;;;;;;5039902;28;20191;-88
2021/03/08 03:57:42;;;;;;;15.48;9.40;;;6.80;99.90;;;;;;5025194;28;20294;-88
2021/03/08 04:00:09;;;;;;;16.02;9.30;;;6.80;99.90;;;;;;5034707;28;20562;-88
2021/03/08 04:02:40;;;;;;;14.85;10.13;;;6.90;99.90;;;;;;5035549;28;20223;-88
2021/03/08 04:05:08;;;;;;;13.10;10.00;;;6.90;99.90;;;;;;5035081;28;20216;-86
2021/03/08 04:07:38;;;;;;;11.43;9.07;;;6.90;99.90;;;;;;5036535;28;20208;-88
2021/03/08 04:10:08;;;;;;;10.50;9.18;;;6.90;99.90;;;;;;5039752;28;20393;-87
2021/03/08 04:12:37;;;;;;;14.45;10.00;;;6.90;99.90;;;;;;5040853;28;20285;-88
2021/03/08 04:15:07;;;;;;;19.25;10.98;;;6.90;99.90;;;;;;5038046;28;20212;-88
2021/03/08 04:17:35;;;;;;;14.43;10.75;;;6.90;99.90;;;;;;5040609;28;20215;-88
2021/03/08 04:20:04;;;;;;;13.40;9.52;;;6.80;99.90;;;;;;5038853;28;20301;-87
2021/03/08 04:22:32;;;;;;;13.15;8.75;;;6.90;99.90;;;;;;5036205;28;20228;-87
2021/03/08 04:25:00;;;;;;;15.55;10.85;;;6.90;99.90;;;;;;5030202;28;20413;-86
2021/03/08 04:27:29;;;;;;;14.25;9.50;;;6.90;99.90;;;;;;5031152;28;20200;-85
2021/03/08 04:29:57;;;;;;;14.57;9.88;;;6.90;99.90;;;;;;5033022;28;20227;-86
2021/03/08 04:32:24;;;;;;;14.45;10.30;;;6.90;99.90;;;;;;5030962;28;20199;-83
2021/03/08 04:34:50;;;;;;;12.90;9.48;;;6.90;99.90;;;;;;5029768;28;20200;-83
2021/03/08 04:37:18;;;;;;;12.65;9.32;;;6.90;99.90;;;;;;5024322;28;20219;-83
2021/03/08 04:39:45;;;;;;;11.52;9.25;;;6.90;99.90;;;;;;5028134;28;20215;-82
2021/03/08 04:42:13;;;;;;;13.82;10.23;;;6.80;99.90;;;;;;5026256;28;20206;-82
2021/03/08 04:44:43;;;;;;;12.90;10.50;;;6.80;99.90;;;;;;5027947;28;20246;-83
2021/03/08 04:47:09;;;;;;;14.68;8.88;;;6.80;99.90;;;;;;5022953;28;20691;-83
2021/03/08 04:49:37;;;;;;;12.00;9.63;;;6.90;99.90;;;;;;5032843;28;20238;-82
2021/03/08 04:52:06;;;;;;;13.85;10.20;;;6.90;99.90;;;;;;5033491;28;20354;-82
2021/03/08 04:54:34;;;;;;;16.48;9.80;;;6.90;99.90;;;;;;5030498;28;20681;-81
2021/03/08 04:57:01;;;;;;;14.98;9.88;;;6.80;99.90;;;;;;5031862;28;20273;-81
2021/03/08 04:59:28;;;;;;;14.50;9.65;;;6.80;99.90;;;;;;5032234;28;20196;-82
2021/03/08 05:01:58;;;;;;;14.13;9.98;;;6.80;99.90;;;;;;5026808;28;20215;-81
2021/03/08 05:04:25;;;;;;;13.27;10.27;;;6.80;99.90;;;;;;5032650;28;20215;-82
2021/03/08 05:06:53;;;;;;;18.20;12.02;;;6.80;99.90;;;;;;5033108;28;20219;-81
2021/03/08 05:09:20;;;;;;;14.80;10.00;;;6.80;99.90;;;;;;5025684;28;20223;-84
2021/03/08 05:11:48;;;;;;;15.40;10.95;;;6.90;99.90;;;;;;5019724;28;20278;-83
2021/03/08 05:14:20;;;;;;;18.27;10.75;;;6.90;99.90;;;;;;5013604;28;20216;-83
2021/03/08 05:16:48;;;;;;;14.63;10.68;;;6.80;99.90;;;;;;5024306;28;20417;-82
2021/03/08 05:19:16;;;;;;;15.95;10.43;;;6.90;99.90;;;;;;5031441;28;20207;-82
2021/03/08 05:21:43;;;;;;;13.77;11.27;;;6.90;99.90;;;;;;5032462;28;20231;-82
2021/03/08 05:24:12;;;;;;;19.13;11.52;;;6.80;99.90;;;;;;5030579;28;20238;-84
2021/03/08 05:26:38;;;;;;;16.42;11.02;;;6.80;99.90;;;;;;5026159;28;20216;-83
2021/03/08 05:29:07;;;;;;;16.67;11.20;;;6.90;99.90;;;;;;5025999;28;20903;-84
2021/03/08 05:31:35;;;;;;;15.75;10.90;;;6.90;99.90;;;;;;5026238;28;20257;-84
2021/03/08 05:34:04;;;;;;;16.48;11.88;;;6.80;99.90;;;;;;5027878;28;20188;-84
2021/03/08 05:36:33;;;;;;;15.02;10.93;;;6.80;99.90;;;;;;5025625;28;20215;-84
2021/03/08 05:39:00;;;;;;;14.80;10.10;;;6.80;99.90;;;;;;5024903;28;20223;-85
2021/03/08 05:41:31;;;;;;;14.82;11.35;;;6.90;99.90;;;;;;5025347;28;20245;-84
2021/03/08 05:44:02;;;;;;;20.33;12.23;;;6.80;99.90;;;;;;5026797;28;20226;-85
2021/03/08 05:46:43;;;;;;;15.70;10.95;;;6.80;99.90;;;;;;5029217;28;20216;-85
2021/03/08 05:49:43;;;;;;;17.27;11.00;;;6.80;99.90;;;;;;5019258;28;20219;-84
2021/03/08 05:52:33;;;;;;;17.35;10.50;;;6.70;99.90;;;;;;5020908;28;20263;-85
2021/03/08 05:55:30;;;;;;;17.20;11.20;;;6.80;99.90;;;;;;5023754;28;20239;-85
2021/03/08 05:58:17;;;;;;;15.45;10.82;;;6.80;99.90;;;;;;5019661;28;20211;-85
2021/03/08 06:01:00;;;;;;;14.27;9.98;;;6.70;99.90;;;;;;5032544;28;20208;-86
2021/03/08 06:03:57;;;;;;;18.08;13.00;;;6.70;99.90;;;;;;5031505;28;20586;-85
2021/03/08 06:07:00;;;;;;;17.48;12.00;;;6.70;99.90;;;;;;5006109;28;20857;-85
2021/03/08 06:09:28;;;;;;;20.05;12.10;;;6.80;99.90;;;;;;5029123;28;20297;-85
2021/03/08 06:12:00;;;;;;;18.27;12.02;;;6.80;99.90;;;;;;5030858;28;20202;-83
2021/03/08 06:14:34;;;;;;;16.83;11.38;;;6.80;99.90;;;;;;5020030;28;20226;-83
2021/03/08 06:17:02;;;;;;;16.50;11.98;;;6.80;99.90;;;;;;5028419;28;20694;-83
2021/03/08 06:19:30;;;;;;;15.32;11.23;;;6.80;99.90;;;;;;5031682;28;20218;-83
2021/03/08 06:21:58;;;;;;;16.27;10.45;;;6.80;99.90;;;;;;5028383;28;20220;-83
2021/03/08 06:24:25;;;;;;;14.73;10.52;;;6.80;99.90;;;;;;5020100;28;20202;-83
2021/03/08 06:26:55;;;;;;;18.35;11.70;;;6.70;99.90;;;;;;5029600;28;20250;-84
2021/03/08 06:29:21;;;;;;;14.27;10.20;;;6.70;99.90;;;;;;5027934;28;20238;-84
2021/03/08 06:31:48;;;;;;;16.73;11.73;;;6.70;99.90;;;;;;5024166;28;20196;-83
2021/03/08 06:34:14;;;;;;;18.00;11.95;;;6.70;99.90;;;;;;5024491;28;20207;-82
2021/03/08 06:36:42;;;;;;;15.32;11.50;;;6.70;99.90;;;;;;5022029;28;20196;-85
2021/03/08 06:39:10;;;;;;;19.90;12.77;;;6.70;99.90;;;;;;5024173;28;20238;-85
2021/03/08 06:41:36;;;;;;;18.80;11.52;;;6.70;99.90;;;;;;5025493;28;20257;-84
2021/03/08 06:44:03;;;;;;;19.30;12.48;;;6.80;99.90;;;;;;5025278;28;20219;-84
2021/03/08 06:46:30;;;;;;;17.65;12.32;;;6.80;99.90;;;;;;5024519;28;20214;-84
2021/03/08 06:48:56;;;;;;;16.77;11.35;;;6.80;99.90;;;;;;5028845;28;20224;-84
2021/03/08 06:51:23;;;;;;;22.45;11.25;;;6.80;99.90;;;;;;5032284;28;20633;-84
2021/03/08 06:53:49;;;;;;;16.40;12.00;;;6.80;99.90;;;;;;5017038;28;20271;-84
2021/03/08 06:56:18;;;;;;;19.95;11.30;;;6.80;99.90;;;;;;5033328;28;20211;-86
2021/03/08 06:58:45;;;;;;;19.70;13.88;;;6.70;99.90;;;;;;5043273;28;20412;-88
2021/03/08 07:01:29;;;;;;;16.45;10.88;;;6.70;99.90;;;;;;5046547;28;20211;-88
2021/03/08 07:03:56;;;;;;;18.92;12.30;;;6.70;99.90;;;;;;5029710;28;20211;-88
2021/03/08 07:06:22;;;;;;;16.83;11.25;;;6.80;99.90;;;;;;5015432;28;20737;-86
2021/03/08 07:08:49;;;;;;;18.15;11.70;;;6.70;99.90;;;;;;5015817;28;20227;-87
2021/03/08 07:11:17;;;;;;;17.58;11.68;;;6.70;99.90;;;;;;5028424;28;20219;-88
2021/03/08 07:13:43;;;;;;;14.13;11.65;;;6.70;99.90;;;;;;5027762;28;20261;-88
2021/03/08 07:16:10;;;;;;;19.65;13.00;;;6.70;99.90;;;;;;5009604;28;20208;-85
2021/03/08 07:18:38;;;;;;;15.98;11.77;;;6.70;99.90;;;;;;5026566;28;20211;-85
2021/03/08 07:21:21;;;;;;;18.13;13.18;;;6.70;99.90;;;;;;5027032;28;20227;-85
2021/03/08 07:23:49;;;;;;;18.05;13.05;;;6.70;99.90;;;;;;5026912;28;20199;-87
2021/03/08 07:26:17;;;;;;;16.20;11.55;;;6.70;99.90;;;;;;5025286;28;20212;-85
2021/03/08 07:28:45;;;;;;;19.73;13.63;;;6.70;99.90;;;;;;5024931;28;20188;-88
2021/03/08 07:31:33;;;;;;;16.30;11.60;;;6.70;99.90;;;;;;5028581;28;20216;-87
2021/03/08 07:34:01;;;;;;;18.88;12.15;;;6.60;99.90;;;;;;5033130;28;20671;-88
2021/03/08 07:36:28;;;;;;;16.48;11.45;;;6.70;99.90;;;;;;5030444;28;20211;-78
2021/03/08 07:38:54;;;;;;;18.10;12.40;;;6.70;99.90;;;;;;5025756;28;20189;-78
2021/03/08 07:41:21;;;;;;;15.68;12.32;;;6.70;99.90;;;;;;5030508;28;20211;-76
2021/03/08 07:43:49;;;;;;;16.67;12.00;;;6.70;99.90;;;;;;5031198;28;20211;-75
2021/03/08 07:46:29;;;;;;;21.15;12.98;;;6.70;99.90;;;;;;5030565;28;20721;-76
2021/03/08 07:48:56;;;;;;;17.85;12.70;;;6.70;99.90;;;;;;5025498;28;20587;-76
2021/03/08 07:51:24;;;;;;;19.73;12.45;;;6.70;99.90;;;;;;5032937;28;20235;-76
2021/03/08 07:53:58;;;;;;;21.25;12.38;;;6.70;99.90;;;;;;5032969;28;20730;-75
2021/03/08 07:56:25;;;;;;;21.60;13.95;;;6.70;99.90;;;;;;5030962;28;20269;-78
2021/03/08 07:58:53;;;;;;;20.33;12.82;;;6.70;99.90;;;;;;5026456;28;20287;-78
2021/03/08 08:01:20;;;;;;;21.00;14.05;;;6.70;99.90;;;;;;5032482;28;20277;-79
2021/03/08 08:03:46;;;;;;;18.45;12.43;;;6.70;99.90;;;;;;5031615;28;20215;-79
2021/03/08 08:06:13;;;;;;;17.77;11.48;;;6.70;99.90;;;;;;5025681;28;20210;-78
2021/03/08 08:08:46;;;;;;;22.00;13.40;;;6.70;99.90;;;;;;5026108;28;20258;-79
2021/03/08 08:11:14;;;;;;;23.48;14.27;;;6.70;99.90;;;;;;5027913;28;20215;-81
2021/03/08 08:13:43;;;;;;;19.45;12.45;;;6.70;99.90;;;;;;5027179;28;20219;-84
2021/03/08 08:16:10;;;;;;;19.08;13.73;;;6.70;99.90;;;;;;5026449;28;20312;-81
2021/03/08 08:18:40;;;;;;;21.25;13.70;;;6.70;99.90;;;;;;5025747;28;20227;-81
2021/03/08 08:21:12;;;;;;;18.83;12.48;;;6.70;99.90;;;;;;5025440;28;20202;-81
2021/03/08 08:23:42;;;;;;;19.33;13.13;;;6.70;99.90;;;;;;5029151;28;20195;-82
2021/03/08 08:26:15;;;;;;;20.10;13.05;;;6.70;99.90;;;;;;5027106;28;20306;-82
2021/03/08 08:28:44;;;;;;;18.13;11.77;;;6.70;99.90;;;;;;5033264;28;20192;-83
2021/03/08 08:31:11;;;;;;;18.42;12.20;;;6.70;99.90;;;;;;5024858;28;20232;-82
2021/03/08 08:33:37;;;;;;;22.70;14.85;;;6.70;99.90;;;;;;5034277;28;20262;-81
2021/03/08 08:36:18;;;;;;;24.60;13.07;;;6.70;99.90;;;;;;5032710;28;20243;-82
2021/03/08 08:39:13;;;;;;;24.95;13.68;;;6.70;99.90;;;;;;5032301;28;20508;-82
2021/03/08 08:41:39;;;;;;;18.13;13.32;;;6.70;99.90;;;;;;5030049;28;20678;-82
2021/03/08 08:44:39;;;;;;;21.83;12.75;;;6.70;99.90;;;;;;5034311;28;20561;-82
2021/03/08 08:47:31;;;;;;;19.90;14.10;;;6.90;99.90;;;;;;5032943;28;20230;-82
2021/03/08 08:50:04;;;;;;;19.35;13.13;;;6.70;99.90;;;;;;5032615;28;20277;-82
2021/03/08 08:52:51;;;;;;;21.75;13.52;;;6.80;99.90;;;;;;5030849;28;20265;-81
2021/03/08 08:55:22;;;;;;;18.48;11.38;;;6.70;99.90;;;;;;5027958;28;20215;-81
2021/03/08 08:58:17;;;;;;;25.02;14.50;;;6.80;99.90;;;;;;5031850;28;20341;-83
2021/03/08 09:00:44;;;;;;;22.23;13.90;;;6.80;99.90;;;;;;5016389;28;20241;-79
2021/03/08 09:03:17;;;;;;;22.45;14.80;;;6.80;99.90;;;;;;5032990;28;20207;-81
2021/03/08 09:05:44;;;;;;;24.70;14.05;;;6.80;99.90;;;;;;5028676;28;20595;-79
2021/03/08 09:08:52;;;;;;;21.27;12.85;;;6.80;99.90;;;;;;5020137;28;20273;-79
2021/03/08 09:11:43;;;;;;;21.65;13.55;;;6.80;99.90;;;;;;4992224;28;20231;-77
2021/03/08 09:14:41;;;;;;;16.33;11.38;;;6.90;99.90;;;;;;5031810;28;20734;-78
2021/03/08 09:17:19;;;;;;;22.65;14.68;;;6.90;99.90;;;;;;4979680;28;20727;-80
2021/03/08 09:19:49;;;;;;;22.90;13.68;;;6.80;99.90;;;;;;5022490;28;20195;-80
2021/03/08 09:22:32;;;;;;;27.23;17.08;;;6.90;99.90;;;;;;5032084;28;20196;-80
2021/03/08 09:24:59;;;;;;;21.35;13.98;;;6.90;99.90;;;;;;5030728;28;20219;-79
2021/03/08 09:27:29;;;;;;;16.83;12.55;;;6.90;99.90;;;;;;5026601;28;20277;-79
2021/03/08 09:30:04;;;;;;;21.73;13.50;;;6.90;99.90;;;;;;5028295;28;20219;-81
2021/03/08 09:32:31;;;;;;;24.73;13.60;;;6.90;99.90;;;;;;5016646;28;20211;-80
2021/03/08 09:35:01;;;;;;;24.33;15.02;;;6.90;99.90;;;;;;5023771;28;20274;-79
2021/03/08 09:37:30;;;;;;;22.35;15.30;;;6.90;99.90;;;;;;5031988;28;20271;-79
2021/03/08 09:39:58;;;;;;;26.95;15.60;;;7.00;99.90;;;;;;5031252;28;20203;-80
2021/03/08 09:42:24;;;;;;;25.45;13.85;;;7.00;99.90;;;;;;5027735;28;20235;-79
2021/03/08 09:44:51;;;;;;;30.30;17.73;;;7.00;99.90;;;;;;5020968;28;20222;-80
2021/03/08 09:47:18;;;;;;;24.85;14.50;;;7.00;99.90;;;;;;5028628;28;20223;-80
2021/03/08 09:49:48;;;;;;;22.88;13.98;;;7.00;99.90;;;;;;5025020;28;20293;-81
2021/03/08 09:52:33;;;;;;;24.50;15.98;;;7.00;99.90;;;;;;5029869;28;20223;-80
2021/03/08 09:54:59;;;;;;;27.75;15.90;;;7.00;99.90;;;;;;5031672;28;20209;-79
2021/03/08 09:57:34;;;;;;;28.45;16.60;;;7.00;99.90;;;;;;5026834;28;20429;-80
2021/03/08 10:00:02;;;;;;;27.23;17.23;;;7.00;99.90;;;;;;5032158;28;20233;-80
2021/03/08 10:02:29;;;;;;;25.70;16.15;;;7.00;99.90;;;;;;5024079;28;20226;-81
2021/03/08 10:04:56;;;;;;;26.55;15.90;;;7.00;99.90;;;;;;5032017;28;20191;-81
2021/03/08 10:07:23;;;;;;;24.77;14.60;;;7.00;99.90;;;;;;5028884;28;20702;-81
2021/03/08 10:10:05;;;;;;;26.05;15.77;;;6.90;99.90;;;;;;5027781;28;20219;-81
2021/03/08 10:12:32;;;;;;;25.40;16.27;;;7.00;99.90;;;;;;5032094;28;20720;-81
2021/03/08 10:15:03;;;;;;;26.75;16.02;;;7.00;99.90;;;;;;5030420;28;20195;-81
2021/03/08 10:17:29;;;;;;;20.42;13.68;;;6.90;99.90;;;;;;5025238;28;20688;-81
2021/03/08 10:19:55;;;;;;;27.02;16.50;;;6.90;99.90;;;;;;5016497;28;20402;-80
2021/03/08 10:22:32;;;;;;;22.75;14.38;;;6.90;99.90;;;;;;5019277;28;20258;-81
2021/03/08 10:25:00;;;;;;;22.50;14.20;;;6.80;99.90;;;;;;5020272;28;20199;-80
2021/03/08 10:27:27;;;;;;;20.85;14.25;;;6.80;99.90;;;;;;5030946;28;20188;-80
2021/03/08 10:29:53;;;;;;;21.08;13.93;;;6.80;99.90;;;;;;5030760;28;20628;-81
2021/03/08 10:32:21;;;;;;;24.08;14.23;;;6.80;99.90;;;;;;5031239;28;20219;-80
2021/03/08 10:34:48;;;;;;;20.20;14.57;;;6.80;99.90;;;;;;5020387;28;20568;-81
2021/03/08 10:37:17;;;;;;;21.85;15.15;;;6.80;99.90;;;;;;5015615;28;20200;-80
2021/03/08 10:39:44;;;;;;;18.63;13.13;;;6.80;99.90;;;;;;5032151;28;20216;-80
2021/03/08 10:42:11;;;;;;;22.42;13.25;;;6.80;99.90;;;;;;5014401;28;20262;-81
2021/03/08 10:44:38;;;;;;;23.85;15.10;;;6.80;99.90;;;;;;5030868;28;20212;-81
2021/03/08 10:47:12;;;;;;;21.88;13.57;;;6.80;99.90;;;;;;5027123;28;20216;-80
2021/03/08 10:49:48;;;;;;;23.67;13.85;;;6.80;99.90;;;;;;5027803;28;20229;-81
2021/03/08 10:52:14;;;;;;;20.38;12.82;;;6.90;99.90;;;;;;5029825;28;20222;-80
2021/03/08 10:54:41;;;;;;;24.30;13.20;;;6.90;99.90;;;;;;5029080;28;20224;-80
2021/03/08 10:57:07;;;;;;;23.88;16.73;;;7.00;99.90;;;;;;5011382;28;20220;-80
2021/03/08 10:59:33;;;;;;;22.30;12.30;;;7.10;99.90;;;;;;5011368;28;20216;-80
2021/03/08 11:02:00;;;;;;;16.33;11.10;;;7.10;99.90;;;;;;5011306;28;20216;-80
2021/03/08 11:04:27;;;;;;;17.52;10.60;;;7.10;99.90;;;;;;5019082;28;20226;-80
2021/03/08 11:06:54;;;;;;;16.83;11.32;;;7.10;99.90;;;;;;5023348;28;20203;-81
2021/03/08 11:09:26;;;;;;;18.75;12.05;;;7.10;99.90;;;;;;5027912;28;20606;-80
2021/03/08 11:11:52;;;;;;;17.83;13.20;;;7.10;99.90;;;;;;5034837;28;20220;-77
2021/03/08 11:14:19;;;;;;;19.60;12.27;;;7.10;99.90;;;;;;5031491;28;20208;-78
2021/03/08 11:16:50;;;;;;;19.30;11.38;;;7.20;99.90;;;;;;5018049;28;20192;-78
2021/03/08 11:19:18;;;;;;;20.25;12.45;;;7.10;99.90;;;;;;5020126;28;20183;-78
2021/03/08 11:21:45;;;;;;;16.67;11.70;;;7.10;99.90;;;;;;5033524;28;20211;-79
2021/03/08 11:24:18;;;;;;;15.85;10.45;;;7.10;99.90;;;;;;5027880;28;20223;-78
2021/03/08 11:27:24;;;;;;;17.35;12.10;;;7.10;99.90;;;;;;5033562;28;20188;-79
2021/03/08 11:30:03;;;;;;;22.65;14.10;;;7.10;99.90;;;;;;5014633;28;20931;-79
2021/03/08 11:32:31;;;;;;;20.45;13.57;;;7.10;99.90;;;;;;5026038;28;20218;-80
2021/03/08 11:34:58;;;;;;;19.13;12.10;;;7.10;99.90;;;;;;5029254;28;20199;-80
2021/03/08 11:37:27;;;;;;;19.13;12.48;;;7.10;99.90;;;;;;5020160;28;20231;-80
2021/03/08 11:39:56;;;;;;;21.25;12.48;;;7.00;99.90;;;;;;5014564;28;20232;-80
2021/03/08 11:42:25;;;;;;;18.58;11.75;;;7.00;99.90;;;;;;5017116;28;20216;-82
2021/03/08 11:44:51;;;;;;;17.45;10.82;;;7.00;99.90;;;;;;5014240;28;20224;-78
2021/03/08 11:47:18;;;;;;;13.95;9.43;;;7.00;99.90;;;;;;5021444;28;20251;-78
2021/03/08 11:49:44;;;;;;;14.32;9.68;;;7.00;99.90;;;;;;5027628;28;20232;-78
2021/03/08 11:52:11;;;;;;;14.60;10.68;;;7.00;99.90;;;;;;5012031;28;20211;-78
2021/03/08 11:54:37;;;;;;;21.27;12.90;;;7.00;99.90;;;;;;4998206;28;20652;-78
2021/03/08 11:57:07;;;;;;;18.55;11.05;;;7.00;99.90;;;;;;5003019;28;20228;-78
2021/03/08 11:59:34;;;;;;;20.30;13.60;;;7.00;99.90;;;;;;5012968;28;20639;-78
2021/03/08 12:02:00;;;;;;;19.13;11.88;;;7.10;99.90;;;;;;5002856;28;20200;-79
2021/03/08 12:04:26;;;;;;;17.50;10.35;;;7.20;99.90;;;;;;5011214;28;20227;-79
2021/03/08 12:06:53;;;;;;;18.83;11.45;;;7.20;99.90;;;;;;4995858;28;20204;-79
2021/03/08 12:09:19;;;;;;;16.75;11.00;;;7.30;99.90;;;;;;5013771;28;20250;-79
2021/03/08 12:11:45;;;;;;;18.65;10.70;;;7.30;99.90;;;;;;5002102;28;20229;-79
2021/03/08 12:14:12;;;;;;;17.15;10.05;;;7.30;99.90;;;;;;5012780;28;20216;-79
2021/03/08 12:16:39;;;;;;;17.95;11.52;;;7.30;99.90;;;;;;4996409;28;20238;-79
2021/03/08 12:19:05;;;;;;;16.80;10.25;;;7.30;99.90;;;;;;5002568;28;20830;-79
2021/03/08 12:21:31;;;;;;;20.60;12.98;;;7.40;99.90;;;;;;4994017;28;20231;-79
2021/03/08 12:23:58;;;;;;;16.42;11.57;;;7.40;99.90;;;;;;5002641;28;20555;-79
2021/03/08 12:26:24;;;;;;;17.38;11.68;;;7.30;99.90;;;;;;5013345;28;20258;-79
2021/03/08 12:28:51;;;;;;;17.13;11.95;;;7.20;99.90;;;;;;5006619;28;20228;-79
2021/03/08 12:31:19;;;;;;;15.23;10.13;;;7.30;99.90;;;;;;5011973;28;20227;-79
2021/03/08 12:33:45;;;;;;;16.42;10.80;;;7.20;99.90;;;;;;5012158;28;20226;-79
2021/03/08 12:36:11;;;;;;;18.65;11.85;;;7.20;99.90;;;;;;5013643;28;20211;-79
2021/03/08 12:38:38;;;;;;;16.45;10.85;;;7.30;99.90;;;;;;5003030;28;20654;-79
2021/03/08 12:41:05;;;;;;;14.38;9.02;;;7.20;99.90;;;;;;4993276;28;20220;-79
2021/03/08 12:43:31;;;;;;;14.98;9.77;;;7.30;99.90;;;;;;5005147;28;20228;-79
2021/03/08 12:45:58;;;;;;;17.23;9.55;;;7.30;99.90;;;;;;5010248;28;20196;-79
2021/03/08 12:48:25;;;;;;;15.10;9.35;;;7.30;99.90;;;;;;4995951;28;20271;-79
2021/03/08 12:50:51;;;;;;;14.25;10.25;;;7.30;99.90;;;;;;5020003;28;20594;-79
2021/03/08 12:53:17;;;;;;;12.98;8.20;;;7.30;99.90;;;;;;5031876;28;20634;-80
2021/03/08 12:55:44;;;;;;;11.80;8.45;;;7.30;99.90;;;;;;5032451;28;20234;-79